sensor_id;sensor_type;location;lat;lon;timestamp;P1;durP1;ratioP1;P2;durP2;ratioP2
23678;SDS011;12016;51.668;6.874;2022-11-20T00:04:16;17.27;;;14.10;;
23678;SDS011;12016;51.668;6.874;2022-11-20T00:10:18;16.85;;;13.32;;
23678;SDS011;12016;51.668;6.874;2022-11-20T00:16:21;19.67;;;14.88;;
23678;SDS011;12016;51.668;6.874;2022-11-20T00:22:24;18.25;;;15.23;;
23678;SDS011;12016;51.668;6.874;2022-11-20T00:28:26;17.17;;;14.35;;
23678;SDS011;12016;51.668;6.874;2022-11-20T00:34:27;17.85;;;14.60;;
23678;SDS011;12016;51.668;6.874;2022-11-20T00:40:29;16.50;;;14.38;;
23678;SDS011;12016;51.668;6.874;2022-11-20T00:46:31;16.13;;;13.68;;
23678;SDS011;12016;51.668;6.874;2022-11-20T00:52:33;16.65;;;13.65;;
23678;SDS011;12016;51.668;6.874;2022-11-20T00:58:36;17.70;;;14.25;;
23678;SDS011;12016;51.668;6.874;2022-11-20T01:04:39;18.42;;;14.63;;
23678;SDS011;12016;51.668;6.874;2022-11-20T01:10:40;16.83;;;13.98;;
23678;SDS011;12016;51.668;6.874;2022-11-20T01:16:46;16.25;;;14.05;;
23678;SDS011;12016;51.668;6.874;2022-11-20T01:22:50;18.17;;;15.00;;
23678;SDS011;12016;51.668;6.874;2022-11-20T01:28:52;18.98;;;14.40;;
23678;SDS011;12016;51.668;6.874;2022-11-20T01:34:54;16.88;;;14.10;;
23678;SDS011;12016;51.668;6.874;2022-11-20T01:40:56;18.38;;;14.90;;
23678;SDS011;12016;51.668;6.874;2022-11-20T01:46:59;19.98;;;16.05;;
23678;SDS011;12016;51.668;6.874;2022-11-20T01:53:05;20.15;;;15.45;;
23678;SDS011;12016;51.668;6.874;2022-11-20T01:59:12;18.23;;;14.93;;
23678;SDS011;12016;51.668;6.874;2022-11-20T02:05:22;20.13;;;16.10;;
23678;SDS011;12016;51.668;6.874;2022-11-20T02:11:29;18.38;;;14.75;;
23678;SDS011;12016;51.668;6.874;2022-11-20T02:17:32;19.33;;;15.90;;
23678;SDS011;12016;51.668;6.874;2022-11-20T02:30:04;19.15;;;16.08;;
23678;SDS011;12016;51.668;6.874;2022-11-20T02:36:09;18.40;;;14.57;;
23678;SDS011;12016;51.668;6.874;2022-11-20T02:42:15;18.02;;;15.05;;
23678;SDS011;12016;51.668;6.874;2022-11-20T02:48:17;19.40;;;15.80;;
23678;SDS011;12016;51.668;6.874;2022-11-20T02:54:19;19.65;;;15.57;;
23678;SDS011;12016;51.668;6.874;2022-11-20T03:00:21;18.00;;;14.75;;
23678;SDS011;12016;51.668;6.874;2022-11-20T03:06:23;18.90;;;15.30;;
23678;SDS011;12016;51.668;6.874;2022-11-20T03:12:24;19.25;;;15.30;;
23678;SDS011;12016;51.668;6.874;2022-11-20T03:18:27;18.60;;;15.60;;
23678;SDS011;12016;51.668;6.874;2022-11-20T03:24:30;19.10;;;15.32;;
23678;SDS011;12016;51.668;6.874;2022-11-20T03:30:32;20.50;;;15.75;;
23678;SDS011;12016;51.668;6.874;2022-11-20T03:36:37;19.52;;;15.70;;
23678;SDS011;12016;51.668;6.874;2022-11-20T03:42:40;18.90;;;15.60;;
23678;SDS011;12016;51.668;6.874;2022-11-20T03:48:48;21.00;;;15.45;;
23678;SDS011;12016;51.668;6.874;2022-11-20T03:54:52;19.15;;;15.63;;
23678;SDS011;12016;51.668;6.874;2022-11-20T04:00:54;20.15;;;14.85;;
23678;SDS011;12016;51.668;6.874;2022-11-20T04:06:56;18.55;;;14.98;;
23678;SDS011;12016;51.668;6.874;2022-11-20T04:12:58;18.90;;;15.30;;
23678;SDS011;12016;51.668;6.874;2022-11-20T04:19:00;20.48;;;15.90;;
23678;SDS011;12016;51.668;6.874;2022-11-20T04:25:03;18.98;;;15.55;;
23678;SDS011;12016;51.668;6.874;2022-11-20T04:31:09;18.67;;;15.63;;
23678;SDS011;12016;51.668;6.874;2022-11-20T04:37:16;19.75;;;15.80;;
23678;SDS011;12016;51.668;6.874;2022-11-20T04:43:17;18.80;;;15.45;;
23678;SDS011;12016;51.668;6.874;2022-11-20T04:49:19;20.00;;;15.88;;
23678;SDS011;12016;51.668;6.874;2022-11-20T04:55:21;21.00;;;15.77;;
23678;SDS011;12016;51.668;6.874;2022-11-20T05:01:23;18.83;;;15.35;;
23678;SDS011;12016;51.668;6.874;2022-11-20T05:07:26;18.13;;;14.70;;
23678;SDS011;12016;51.668;6.874;2022-11-20T05:13:28;18.42;;;14.55;;
23678;SDS011;12016;51.668;6.874;2022-11-20T05:19:29;17.98;;;15.15;;
23678;SDS011;12016;51.668;6.874;2022-11-20T05:25:31;17.48;;;15.07;;
23678;SDS011;12016;51.668;6.874;2022-11-20T05:31:33;19.45;;;15.80;;
23678;SDS011;12016;51.668;6.874;2022-11-20T05:37:35;19.67;;;16.88;;
23678;SDS011;12016;51.668;6.874;2022-11-20T05:43:38;22.88;;;16.05;;
23678;SDS011;12016;51.668;6.874;2022-11-20T05:49:41;21.17;;;17.38;;
23678;SDS011;12016;51.668;6.874;2022-11-20T05:55:43;22.02;;;18.20;;
23678;SDS011;12016;51.668;6.874;2022-11-20T06:01:45;18.17;;;15.55;;
23678;SDS011;12016;51.668;6.874;2022-11-20T06:07:46;18.45;;;15.32;;
23678;SDS011;12016;51.668;6.874;2022-11-20T06:13:48;21.10;;;16.08;;
23678;SDS011;12016;51.668;6.874;2022-11-20T06:19:50;21.38;;;16.30;;
23678;SDS011;12016;51.668;6.874;2022-11-20T06:25:52;17.77;;;14.65;;
23678;SDS011;12016;51.668;6.874;2022-11-20T06:31:53;19.75;;;16.38;;
23678;SDS011;12016;51.668;6.874;2022-11-20T06:37:55;18.92;;;15.82;;
23678;SDS011;12016;51.668;6.874;2022-11-20T06:43:57;18.40;;;15.80;;
23678;SDS011;12016;51.668;6.874;2022-11-20T06:49:59;17.35;;;15.07;;
23678;SDS011;12016;51.668;6.874;2022-11-20T06:56:01;18.05;;;15.27;;
23678;SDS011;12016;51.668;6.874;2022-11-20T07:02:03;19.27;;;15.57;;
23678;SDS011;12016;51.668;6.874;2022-11-20T07:08:05;18.98;;;16.02;;
23678;SDS011;12016;51.668;6.874;2022-11-20T07:14:07;16.88;;;14.48;;
23678;SDS011;12016;51.668;6.874;2022-11-20T07:20:09;18.63;;;15.32;;
23678;SDS011;12016;51.668;6.874;2022-11-20T07:26:11;19.25;;;15.40;;
23678;SDS011;12016;51.668;6.874;2022-11-20T07:32:14;20.15;;;16.25;;
23678;SDS011;12016;51.668;6.874;2022-11-20T07:44:18;19.77;;;15.25;;
23678;SDS011;12016;51.668;6.874;2022-11-20T07:50:19;20.88;;;16.42;;
23678;SDS011;12016;51.668;6.874;2022-11-20T07:56:21;21.45;;;15.82;;
23678;SDS011;12016;51.668;6.874;2022-11-20T08:02:24;18.52;;;15.07;;
23678;SDS011;12016;51.668;6.874;2022-11-20T08:08:26;18.95;;;16.13;;
23678;SDS011;12016;51.668;6.874;2022-11-20T08:14:28;24.98;;;19.83;;
23678;SDS011;12016;51.668;6.874;2022-11-20T08:20:30;24.88;;;19.17;;
23678;SDS011;12016;51.668;6.874;2022-11-20T08:26:33;28.35;;;22.05;;
23678;SDS011;12016;51.668;6.874;2022-11-20T08:32:35;20.77;;;18.10;;
23678;SDS011;12016;51.668;6.874;2022-11-20T08:38:39;20.65;;;16.95;;
23678;SDS011;12016;51.668;6.874;2022-11-20T08:44:41;20.92;;;17.52;;
23678;SDS011;12016;51.668;6.874;2022-11-20T08:50:44;24.10;;;19.38;;
23678;SDS011;12016;51.668;6.874;2022-11-20T08:56:46;23.67;;;19.83;;
23678;SDS011;12016;51.668;6.874;2022-11-20T09:02:48;28.45;;;22.73;;
23678;SDS011;12016;51.668;6.874;2022-11-20T09:08:53;25.63;;;21.38;;
23678;SDS011;12016;51.668;6.874;2022-11-20T09:14:55;25.30;;;21.90;;
23678;SDS011;12016;51.668;6.874;2022-11-20T09:21:00;35.05;;;25.88;;
23678;SDS011;12016;51.668;6.874;2022-11-20T09:27:04;21.63;;;18.90;;
23678;SDS011;12016;51.668;6.874;2022-11-20T09:33:07;24.98;;;20.83;;
23678;SDS011;12016;51.668;6.874;2022-11-20T09:39:09;23.08;;;19.15;;
23678;SDS011;12016;51.668;6.874;2022-11-20T09:45:25;24.10;;;19.75;;
23678;SDS011;12016;51.668;6.874;2022-11-20T09:51:46;20.95;;;18.70;;
23678;SDS011;12016;51.668;6.874;2022-11-20T09:57:58;21.83;;;19.02;;
23678;SDS011;12016;51.668;6.874;2022-11-20T10:10:17;42.30;;;34.67;;
23678;SDS011;12016;51.668;6.874;2022-11-20T10:16:35;23.70;;;20.08;;
23678;SDS011;12016;51.668;6.874;2022-11-20T10:29:16;21.92;;;18.73;;
23678;SDS011;12016;51.668;6.874;2022-11-20T10:35:26;24.25;;;19.52;;
23678;SDS011;12016;51.668;6.874;2022-11-20T10:41:37;24.35;;;19.45;;
23678;SDS011;12016;51.668;6.874;2022-11-20T10:47:42;23.30;;;19.80;;
23678;SDS011;12016;51.668;6.874;2022-11-20T11:12:08;26.13;;;21.85;;
23678;SDS011;12016;51.668;6.874;2022-11-20T11:18:11;24.23;;;20.48;;
23678;SDS011;12016;51.668;6.874;2022-11-20T11:24:27;25.70;;;20.38;;
23678;SDS011;12016;51.668;6.874;2022-11-20T11:30:46;24.13;;;19.95;;
23678;SDS011;12016;51.668;6.874;2022-11-20T11:36:52;23.98;;;19.10;;
23678;SDS011;12016;51.668;6.874;2022-11-20T11:42:59;22.90;;;19.85;;
23678;SDS011;12016;51.668;6.874;2022-11-20T11:55:07;21.38;;;17.58;;
23678;SDS011;12016;51.668;6.874;2022-11-20T12:07:45;26.10;;;19.88;;
23678;SDS011;12016;51.668;6.874;2022-11-20T12:14:02;22.70;;;18.55;;
23678;SDS011;12016;51.668;6.874;2022-11-20T12:20:14;25.00;;;19.35;;
23678;SDS011;12016;51.668;6.874;2022-11-20T12:32:31;25.17;;;19.83;;
23678;SDS011;12016;51.668;6.874;2022-11-20T12:39:03;25.23;;;19.15;;
23678;SDS011;12016;51.668;6.874;2022-11-20T12:52:13;26.80;;;20.80;;
23678;SDS011;12016;51.668;6.874;2022-11-20T13:05:27;23.17;;;18.88;;
23678;SDS011;12016;51.668;6.874;2022-11-20T13:11:46;34.13;;;26.63;;
23678;SDS011;12016;51.668;6.874;2022-11-20T13:17:54;27.15;;;22.63;;
23678;SDS011;12016;51.668;6.874;2022-11-20T13:24:06;25.70;;;20.38;;
23678;SDS011;12016;51.668;6.874;2022-11-20T13:30:23;25.48;;;20.67;;
23678;SDS011;12016;51.668;6.874;2022-11-20T13:36:27;24.10;;;19.63;;
23678;SDS011;12016;51.668;6.874;2022-11-20T13:42:30;26.58;;;21.88;;
23678;SDS011;12016;51.668;6.874;2022-11-20T13:48:33;23.33;;;19.67;;
23678;SDS011;12016;51.668;6.874;2022-11-20T13:54:44;24.88;;;20.70;;
23678;SDS011;12016;51.668;6.874;2022-11-20T14:01:09;27.35;;;21.08;;
23678;SDS011;12016;51.668;6.874;2022-11-20T14:07:15;25.17;;;20.58;;
23678;SDS011;12016;51.668;6.874;2022-11-20T14:13:20;29.48;;;22.88;;
23678;SDS011;12016;51.668;6.874;2022-11-20T14:19:31;26.45;;;21.17;;
23678;SDS011;12016;51.668;6.874;2022-11-20T14:25:33;27.50;;;21.67;;
23678;SDS011;12016;51.668;6.874;2022-11-20T14:31:35;28.58;;;22.38;;
23678;SDS011;12016;51.668;6.874;2022-11-20T14:37:37;28.00;;;22.48;;
23678;SDS011;12016;51.668;6.874;2022-11-20T14:43:44;26.98;;;21.67;;
23678;SDS011;12016;51.668;6.874;2022-11-20T14:49:47;26.35;;;21.20;;
23678;SDS011;12016;51.668;6.874;2022-11-20T14:55:55;25.85;;;20.55;;
23678;SDS011;12016;51.668;6.874;2022-11-20T15:02:03;27.35;;;20.95;;
23678;SDS011;12016;51.668;6.874;2022-11-20T15:08:10;26.92;;;20.90;;
23678;SDS011;12016;51.668;6.874;2022-11-20T15:14:13;26.17;;;20.58;;
23678;SDS011;12016;51.668;6.874;2022-11-20T15:20:17;23.45;;;18.70;;
23678;SDS011;12016;51.668;6.874;2022-11-20T15:26:34;27.17;;;19.98;;
23678;SDS011;12016;51.668;6.874;2022-11-20T15:32:37;28.30;;;21.95;;
23678;SDS011;12016;51.668;6.874;2022-11-20T15:38:47;29.70;;;23.00;;
23678;SDS011;12016;51.668;6.874;2022-11-20T15:44:50;30.75;;;23.65;;
23678;SDS011;12016;51.668;6.874;2022-11-20T15:51:36;29.25;;;22.35;;
23678;SDS011;12016;51.668;6.874;2022-11-20T15:57:17;29.63;;;22.33;;
23678;SDS011;12016;51.668;6.874;2022-11-20T16:03:19;28.67;;;22.15;;
23678;SDS011;12016;51.668;6.874;2022-11-20T16:09:22;28.08;;;22.65;;
23678;SDS011;12016;51.668;6.874;2022-11-20T16:15:24;30.75;;;23.15;;
23678;SDS011;12016;51.668;6.874;2022-11-20T16:21:45;29.45;;;22.92;;
23678;SDS011;12016;51.668;6.874;2022-11-20T16:27:47;27.23;;;21.10;;
23678;SDS011;12016;51.668;6.874;2022-11-20T16:33:49;28.95;;;22.30;;
23678;SDS011;12016;51.668;6.874;2022-11-20T16:39:56;31.17;;;24.75;;
23678;SDS011;12016;51.668;6.874;2022-11-20T16:45:57;27.52;;;21.48;;
23678;SDS011;12016;51.668;6.874;2022-11-20T16:51:59;26.83;;;21.55;;
23678;SDS011;12016;51.668;6.874;2022-11-20T16:58:01;28.58;;;22.98;;
23678;SDS011;12016;51.668;6.874;2022-11-20T17:04:04;37.53;;;28.88;;
23678;SDS011;12016;51.668;6.874;2022-11-20T17:10:08;33.10;;;25.88;;
23678;SDS011;12016;51.668;6.874;2022-11-20T17:16:15;32.25;;;25.10;;
23678;SDS011;12016;51.668;6.874;2022-11-20T17:22:19;29.17;;;22.77;;
23678;SDS011;12016;51.668;6.874;2022-11-20T17:28:21;28.63;;;22.15;;
23678;SDS011;12016;51.668;6.874;2022-11-20T17:34:23;31.63;;;23.73;;
23678;SDS011;12016;51.668;6.874;2022-11-20T17:40:25;29.42;;;22.92;;
23678;SDS011;12016;51.668;6.874;2022-11-20T17:46:31;32.20;;;24.27;;
23678;SDS011;12016;51.668;6.874;2022-11-20T17:52:35;28.45;;;22.25;;
23678;SDS011;12016;51.668;6.874;2022-11-20T17:58:36;33.58;;;24.65;;
23678;SDS011;12016;51.668;6.874;2022-11-20T18:04:40;29.65;;;22.17;;
23678;SDS011;12016;51.668;6.874;2022-11-20T18:10:42;31.92;;;24.70;;
23678;SDS011;12016;51.668;6.874;2022-11-20T18:16:50;35.65;;;26.67;;
23678;SDS011;12016;51.668;6.874;2022-11-20T18:22:53;30.73;;;24.33;;
23678;SDS011;12016;51.668;6.874;2022-11-20T18:28:56;34.28;;;26.27;;
23678;SDS011;12016;51.668;6.874;2022-11-20T18:34:58;30.27;;;23.48;;
23678;SDS011;12016;51.668;6.874;2022-11-20T18:41:00;33.83;;;25.15;;
23678;SDS011;12016;51.668;6.874;2022-11-20T18:47:04;34.97;;;27.42;;
23678;SDS011;12016;51.668;6.874;2022-11-20T18:53:12;34.38;;;25.00;;
23678;SDS011;12016;51.668;6.874;2022-11-20T18:59:14;31.70;;;24.10;;
23678;SDS011;12016;51.668;6.874;2022-11-20T19:05:16;34.22;;;25.50;;
23678;SDS011;12016;51.668;6.874;2022-11-20T19:11:18;30.63;;;23.70;;
23678;SDS011;12016;51.668;6.874;2022-11-20T19:17:20;31.75;;;24.15;;
23678;SDS011;12016;51.668;6.874;2022-11-20T19:23:21;34.97;;;25.55;;
23678;SDS011;12016;51.668;6.874;2022-11-20T19:29:24;33.75;;;24.73;;
23678;SDS011;12016;51.668;6.874;2022-11-20T19:35:27;30.23;;;22.73;;
23678;SDS011;12016;51.668;6.874;2022-11-20T19:41:32;30.05;;;22.40;;
23678;SDS011;12016;51.668;6.874;2022-11-20T19:47:34;34.28;;;24.38;;
23678;SDS011;12016;51.668;6.874;2022-11-20T19:53:53;33.63;;;23.30;;
23678;SDS011;12016;51.668;6.874;2022-11-20T19:59:58;33.75;;;24.95;;
23678;SDS011;12016;51.668;6.874;2022-11-20T20:06:04;34.83;;;25.77;;
23678;SDS011;12016;51.668;6.874;2022-11-20T20:18:14;32.28;;;25.00;;
23678;SDS011;12016;51.668;6.874;2022-11-20T20:24:18;32.20;;;23.38;;
23678;SDS011;12016;51.668;6.874;2022-11-20T20:30:20;27.55;;;22.00;;
23678;SDS011;12016;51.668;6.874;2022-11-20T20:36:22;28.55;;;22.77;;
23678;SDS011;12016;51.668;6.874;2022-11-20T20:42:25;30.45;;;22.58;;
23678;SDS011;12016;51.668;6.874;2022-11-20T20:48:27;29.23;;;22.85;;
23678;SDS011;12016;51.668;6.874;2022-11-20T20:54:29;28.75;;;22.27;;
23678;SDS011;12016;51.668;6.874;2022-11-20T21:00:34;28.80;;;21.98;;
23678;SDS011;12016;51.668;6.874;2022-11-20T21:06:36;25.90;;;20.23;;
23678;SDS011;12016;51.668;6.874;2022-11-20T21:12:38;25.40;;;20.33;;
23678;SDS011;12016;51.668;6.874;2022-11-20T21:18:40;23.30;;;19.80;;
23678;SDS011;12016;51.668;6.874;2022-11-20T21:24:42;27.08;;;22.67;;
23678;SDS011;12016;51.668;6.874;2022-11-20T21:30:44;30.65;;;25.15;;
23678;SDS011;12016;51.668;6.874;2022-11-20T21:36:46;25.17;;;21.25;;
23678;SDS011;12016;51.668;6.874;2022-11-20T21:42:48;21.15;;;18.10;;
23678;SDS011;12016;51.668;6.874;2022-11-20T21:48:51;23.35;;;18.48;;
23678;SDS011;12016;51.668;6.874;2022-11-20T21:54:53;23.92;;;19.65;;
23678;SDS011;12016;51.668;6.874;2022-11-20T22:00:55;23.13;;;18.75;;
23678;SDS011;12016;51.668;6.874;2022-11-20T22:06:57;23.90;;;18.67;;
23678;SDS011;12016;51.668;6.874;2022-11-20T22:12:59;24.25;;;18.98;;
23678;SDS011;12016;51.668;6.874;2022-11-20T22:19:20;24.70;;;20.00;;
23678;SDS011;12016;51.668;6.874;2022-11-20T22:25:22;22.88;;;19.02;;
23678;SDS011;12016;51.668;6.874;2022-11-20T22:31:25;23.17;;;18.55;;
23678;SDS011;12016;51.668;6.874;2022-11-20T22:37:31;23.25;;;18.77;;
23678;SDS011;12016;51.668;6.874;2022-11-20T22:43:33;23.33;;;18.92;;
23678;SDS011;12016;51.668;6.874;2022-11-20T22:49:36;23.92;;;19.02;;
23678;SDS011;12016;51.668;6.874;2022-11-20T22:55:37;25.23;;;19.65;;
23678;SDS011;12016;51.668;6.874;2022-11-20T23:01:39;23.02;;;18.50;;
23678;SDS011;12016;51.668;6.874;2022-11-20T23:07:41;24.98;;;20.20;;
23678;SDS011;12016;51.668;6.874;2022-11-20T23:13:44;23.15;;;19.15;;
23678;SDS011;12016;51.668;6.874;2022-11-20T23:19:48;22.40;;;18.30;;
23678;SDS011;12016;51.668;6.874;2022-11-20T23:25:50;19.73;;;16.60;;
23678;SDS011;12016;51.668;6.874;2022-11-20T23:31:52;17.85;;;15.45;;
23678;SDS011;12016;51.668;6.874;2022-11-20T23:37:54;18.35;;;14.88;;
23678;SDS011;12016;51.668;6.874;2022-11-20T23:43:56;18.80;;;15.90;;
23678;SDS011;12016;51.668;6.874;2022-11-20T23:49:58;16.10;;;14.40;;
23678;SDS011;12016;51.668;6.874;2022-11-20T23:56:01;18.30;;;15.98;;
